成都 の空港の天気 - METARとTAF

成都双流国際空港 ( ZUUU / CTU ) - 中国 四川省成都市
飛行場実況気象(Metar)
観測時間10/18 16:00 CST (10/18 08:00 UTC)
風向・風速南東 3m/s
視程10km以上
天気現象
少しの雲 雲底高度 790m
全天の8割程度の雲 雲底高度 1220m
気温24℃
湿度44%
気圧1019hPa
METARZUUU 180800Z 13003MPS 050V160 9999 FEW026 BKN040 24/11 Q1019 NOSIG
過去の天気等 Google飛行場航空写真 Wunderground天気予報

過去48時間のMETAR

飛行場予報(TAF)
発表時間: 10/18 10:16 CST (10/18 02:16 UTC)
予報対象時間: 18日14時 CST ~ 19日14時 CST
風向・風速南南西 3m/s
視程5000m
天気現象もや
全天の4割程度の雲 雲底高度 1520m
TAF ZUUU 180216Z 1806/1906 20003MPS 5000 BR SCT050 TX24/1807Z TN14/1822Z